Time;durP1;ratioP1;P1;durP2;ratioP2;P2;SDS_P1;SDS_P2;PMS_P1;PMS_P2;Temp;Humidity;BMP_temperature;BMP_pressure;BME280_temperature;BME280_humidity;BME280_pressure;Samples;Min_cycle;Max_cycle;Signal;HPM_P1;HPM_P2
2022/07/21 00:00:22;;;;;;;2.58;2.05;;;20.20;99.90;;;;;;5095968;28;20030;-76
2022/07/21 00:02:48;;;;;;;2.90;2.13;;;20.20;99.90;;;;;;5096096;28;20477;-76
2022/07/21 00:05:17;;;;;;;6.40;2.30;;;20.20;99.90;;;;;;5095898;28;20103;-76
2022/07/21 00:07:44;;;;;;;2.58;2.28;;;20.20;99.90;;;;;;5095851;28;20443;-76
2022/07/21 00:10:10;;;;;;;3.03;1.90;;;20.10;99.90;;;;;;5094472;28;20024;-76
2022/07/21 00:12:36;;;;;;;5.85;2.72;;;20.20;99.90;;;;;;5096068;28;20021;-76
2022/07/21 00:15:04;;;;;;;2.45;1.95;;;20.10;99.90;;;;;;5095818;28;20491;-76
2022/07/21 00:17:30;;;;;;;3.22;2.20;;;20.10;99.90;;;;;;5094901;28;20024;-76
2022/07/21 00:19:56;;;;;;;5.05;1.98;;;20.10;99.90;;;;;;5094299;28;20027;-76
2022/07/21 00:22:21;;;;;;;4.38;2.55;;;20.20;99.90;;;;;;5095568;28;20024;-76
2022/07/21 00:24:47;;;;;;;4.53;2.60;;;20.10;99.90;;;;;;5094296;28;20020;-76
2022/07/21 00:27:12;;;;;;;5.25;2.50;;;20.20;99.90;;;;;;5096121;28;20032;-76
2022/07/21 00:29:38;;;;;;;4.20;2.65;;;20.20;99.90;;;;;;5094003;28;20019;-76
2022/07/21 00:32:05;;;;;;;3.58;2.90;;;20.20;99.90;;;;;;5096045;28;20027;-76
2022/07/21 00:34:31;;;;;;;6.53;2.97;;;20.20;99.90;;;;;;5095674;28;20043;-76
2022/07/21 00:36:57;;;;;;;4.13;3.03;;;20.20;99.90;;;;;;5095249;28;20027;-76
2022/07/21 00:39:23;;;;;;;7.40;4.03;;;20.20;99.90;;;;;;5093903;28;20122;-76
2022/07/21 00:41:48;;;;;;;4.95;3.58;;;20.20;99.90;;;;;;5095768;28;20477;-76
2022/07/21 00:44:26;;;;;;;5.38;3.08;;;20.20;99.90;;;;;;5095250;28;20106;-76
2022/07/21 00:46:52;;;;;;;3.08;2.42;;;20.20;99.90;;;;;;5095751;28;20061;-76
2022/07/21 00:49:18;;;;;;;5.25;2.70;;;20.20;99.90;;;;;;5095424;28;20020;-76
2022/07/21 00:51:44;;;;;;;3.25;2.67;;;20.10;99.90;;;;;;5095024;28;20093;-76
2022/07/21 00:54:10;;;;;;;5.13;3.00;;;20.10;99.90;;;;;;5095046;28;20021;-76
2022/07/21 00:56:35;;;;;;;3.45;2.50;;;20.00;99.90;;;;;;5095521;28;20020;-76
2022/07/21 00:59:02;;;;;;;3.65;2.13;;;20.00;99.90;;;;;;5095072;28;20488;-76
2022/07/21 01:01:27;;;;;;;3.50;2.50;;;20.00;99.90;;;;;;5094870;28;20465;-76
2022/07/21 01:03:53;;;;;;;3.65;2.45;;;20.00;99.90;;;;;;5093593;28;20084;-76
2022/07/21 01:06:18;;;;;;;2.92;2.25;;;20.10;99.90;;;;;;5093580;28;20028;-76
2022/07/21 01:08:44;;;;;;;4.82;2.00;;;20.00;99.90;;;;;;5094751;28;20024;-76
2022/07/21 01:11:10;;;;;;;4.40;2.03;;;20.00;99.90;;;;;;5094567;28;20016;-76
2022/07/21 01:13:41;;;;;;;2.92;2.13;;;19.90;99.90;;;;;;5094667;28;20484;-76
2022/07/21 01:16:08;;;;;;;2.70;1.65;;;19.90;99.90;;;;;;5093442;28;20093;-76
2022/07/21 01:18:34;;;;;;;5.82;2.60;;;19.90;99.90;;;;;;5094537;28;20012;-76
2022/07/21 01:21:03;;;;;;;5.43;2.20;;;19.80;99.90;;;;;;5093233;28;20065;-76
2022/07/21 01:23:29;;;;;;;5.03;2.08;;;19.80;99.90;;;;;;5094347;28;20077;-76
2022/07/21 01:25:54;;;;;;;5.03;2.33;;;19.60;99.90;;;;;;5094427;28;20024;-76
2022/07/21 01:28:20;;;;;;;4.63;2.50;;;19.60;99.90;;;;;;5093009;28;20053;-76
2022/07/21 01:30:46;;;;;;;4.55;2.88;;;19.70;99.90;;;;;;5093378;28;20046;-76
2022/07/21 01:33:11;;;;;;;3.55;2.45;;;19.70;99.90;;;;;;5094762;28;20405;-76
2022/07/21 01:35:37;;;;;;;4.22;2.58;;;19.60;99.90;;;;;;5094067;28;20024;-76
2022/07/21 01:38:03;;;;;;;3.97;2.40;;;19.60;99.90;;;;;;5092981;28;20111;-76
2022/07/21 01:43:13;;;;;;;4.88;3.03;;;19.70;99.90;;;;;;5095017;28;20515;-76
2022/07/21 01:45:40;;;;;;;5.22;2.67;;;19.60;99.90;;;;;;5093992;28;20024;-76
2022/07/21 01:48:05;;;;;;;3.80;2.70;;;19.60;99.90;;;;;;5093970;28;20024;-76
2022/07/21 01:50:31;;;;;;;4.45;2.63;;;19.60;99.90;;;;;;5092577;28;20069;-76
2022/07/21 01:52:58;;;;;;;5.20;3.40;;;19.60;99.90;;;;;;5093911;28;20020;-76
2022/07/21 01:55:25;;;;;;;6.65;3.53;;;19.50;99.90;;;;;;5092523;28;20021;-76
2022/07/21 01:57:51;;;;;;;4.25;2.88;;;19.60;99.90;;;;;;5093838;28;20024;-76
2022/07/21 02:00:17;;;;;;;7.63;3.33;;;19.50;99.90;;;;;;5093997;28;20035;-76
2022/07/21 02:02:43;;;;;;;5.60;3.83;;;19.50;99.90;;;;;;5093997;28;20106;-76
2022/07/21 02:05:09;;;;;;;4.80;3.13;;;19.50;99.90;;;;;;5093702;28;20063;-76
2022/07/21 02:07:35;;;;;;;5.53;3.42;;;19.50;99.90;;;;;;5093560;28;20036;-76
2022/07/21 02:10:00;;;;;;;5.85;3.42;;;19.50;99.90;;;;;;5093543;28;20028;-76
2022/07/21 02:12:26;;;;;;;5.95;3.85;;;19.50;99.90;;;;;;5094192;28;20095;-76
2022/07/21 02:14:51;;;;;;;5.68;3.65;;;19.40;99.90;;;;;;5093668;28;20024;-76
2022/07/21 02:17:17;;;;;;;11.75;4.85;;;19.40;99.90;;;;;;5093587;28;20013;-76
2022/07/21 02:19:43;;;;;;;5.70;3.75;;;19.40;99.90;;;;;;5092506;28;20016;-76
2022/07/21 02:22:08;;;;;;;6.90;4.20;;;19.40;99.90;;;;;;5093500;28;20461;-76
2022/07/21 02:24:34;;;;;;;8.52;4.82;;;19.70;99.90;;;;;;5092274;28;20389;-76
2022/07/21 02:27:00;;;;;;;7.78;4.53;;;19.40;99.90;;;;;;5094078;28;20462;-76
2022/07/21 02:29:26;;;;;;;7.10;4.18;;;19.40;99.90;;;;;;5093673;28;20074;-76
2022/07/21 02:31:51;;;;;;;8.88;4.65;;;19.40;99.90;;;;;;5093320;28;20028;-76
2022/07/21 02:34:17;;;;;;;7.63;4.25;;;19.40;99.90;;;;;;5093710;28;20027;-74
2022/07/21 02:36:43;;;;;;;7.03;4.22;;;19.40;99.90;;;;;;5093366;28;20046;-74
2022/07/21 02:39:08;;;;;;;8.15;5.00;;;19.30;99.90;;;;;;5093242;28;20062;-74
2022/07/21 02:41:34;;;;;;;7.65;4.03;;;19.30;99.90;;;;;;5095873;28;20024;-74
2022/07/21 02:43:59;;;;;;;9.50;5.38;;;19.40;99.90;;;;;;5097597;28;20100;-74
2022/07/21 02:46:25;;;;;;;10.45;4.65;;;19.50;99.90;;;;;;5097980;28;20078;-74
2022/07/21 02:48:50;;;;;;;8.32;4.97;;;19.40;99.90;;;;;;5097515;28;20054;-74
2022/07/21 02:51:16;;;;;;;8.23;4.68;;;19.40;99.90;;;;;;5097870;28;20056;-73
2022/07/21 02:53:42;;;;;;;10.68;5.20;;;19.40;99.90;;;;;;5097319;28;20492;-74
2022/07/21 02:56:08;;;;;;;9.50;5.57;;;19.30;99.90;;;;;;5097274;28;20028;-74
2022/07/21 02:58:33;;;;;;;9.32;5.82;;;19.40;99.90;;;;;;5095968;28;20031;-74
2022/07/21 03:01:04;;;;;;;8.80;5.65;;;19.40;99.90;;;;;;5095880;28;20020;-74
2022/07/21 03:03:32;;;;;;;11.88;5.97;;;19.40;99.90;;;;;;5097102;28;20028;-74
2022/07/21 03:05:59;;;;;;;9.73;5.38;;;19.40;99.90;;;;;;5097212;28;20040;-74
2022/07/21 03:08:25;;;;;;;12.77;6.40;;;19.40;99.90;;;;;;5097068;28;20024;-76
2022/07/21 03:10:51;;;;;;;9.30;5.68;;;19.40;99.90;;;;;;5096779;28;20051;-76
2022/07/21 03:13:17;;;;;;;9.52;5.60;;;19.40;99.90;;;;;;5096958;28;20085;-76
2022/07/21 03:15:42;;;;;;;10.02;5.90;;;19.40;99.90;;;;;;5095611;28;20034;-76
2022/07/21 03:18:08;;;;;;;9.73;5.85;;;19.40;99.90;;;;;;5095563;28;20116;-76
2022/07/21 03:20:37;;;;;;;11.23;6.53;;;19.40;99.90;;;;;;5095483;28;20073;-76
2022/07/21 03:23:03;;;;;;;;;;;19.40;99.90;;;;;;5097143;28;20081;-76
2022/07/21 03:25:29;;;;;;;12.48;7.10;;;19.40;99.90;;;;;;5097282;28;19911;-76
2022/07/21 03:27:56;;;;;;;9.75;6.70;;;19.40;99.90;;;;;;5096711;28;20024;-76
2022/07/21 03:30:22;;;;;;;12.13;7.63;;;19.40;99.90;;;;;;5096534;28;20024;-75
2022/07/21 03:32:49;;;;;;;10.27;5.97;;;19.40;99.90;;;;;;5096597;28;20024;-76
2022/07/21 03:35:15;;;;;;;9.82;6.22;;;19.50;99.90;;;;;;5095273;28;20016;-76
2022/07/21 03:37:43;;;;;;;12.30;6.97;;;19.50;99.90;;;;;;5097068;28;20095;-76
2022/07/21 03:40:10;;;;;;;10.98;6.95;;;19.50;99.90;;;;;;5096361;28;20012;-76
2022/07/21 03:42:36;;;;;;;14.65;7.15;;;19.50;99.90;;;;;;5096463;28;20069;-76
2022/07/21 03:45:02;;;;;;;12.48;7.53;;;19.60;99.90;;;;;;5096462;28;20447;-76
2022/07/21 03:47:27;;;;;;;12.50;6.45;;;19.50;99.90;;;;;;5096212;28;20102;-76
2022/07/21 03:49:53;;;;;;;12.80;7.05;;;19.50;99.90;;;;;;5095131;28;20027;-76
2022/07/21 03:52:19;;;;;;;12.75;6.43;;;19.50;99.90;;;;;;5093756;28;20444;-76
2022/07/21 03:54:44;;;;;;;12.82;7.10;;;19.40;99.90;;;;;;5096209;28;20024;-76
2022/07/21 03:57:10;;;;;;;12.25;7.10;;;19.40;99.90;;;;;;5096105;28;20050;-76
2022/07/21 03:59:35;;;;;;;14.30;7.30;;;19.40;99.90;;;;;;5094927;28;20120;-76
2022/07/21 04:02:01;;;;;;;13.02;8.05;;;19.40;99.90;;;;;;5096144;28;20136;-76
2022/07/21 04:04:26;;;;;;;13.15;8.27;;;19.30;99.90;;;;;;5096068;28;20028;-76
2022/07/21 04:06:52;;;;;;;11.75;7.35;;;19.40;99.90;;;;;;5095748;28;20040;-76
2022/07/21 04:09:17;;;;;;;11.75;7.85;;;19.20;99.90;;;;;;5096298;28;20034;-76
2022/07/21 04:11:44;;;;;;;12.20;7.43;;;19.10;99.90;;;;;;5095807;28;20024;-76
2022/07/21 04:14:09;;;;;;;17.17;8.20;;;19.30;99.90;;;;;;5096093;28;20027;-76
2022/07/21 04:16:35;;;;;;;12.32;7.15;;;19.20;99.90;;;;;;5094492;28;20110;-76
2022/07/21 04:19:00;;;;;;;14.50;8.43;;;19.20;99.90;;;;;;5094323;28;20499;-75
2022/07/21 04:21:26;;;;;;;12.13;7.85;;;19.40;99.90;;;;;;5095724;28;20048;-75
2022/07/21 04:23:51;;;;;;;14.85;8.60;;;19.20;99.90;;;;;;5096281;28;20074;-77
2022/07/21 04:26:17;;;;;;;12.60;7.43;;;19.20;99.90;;;;;;5095644;28;20028;-77
2022/07/21 04:28:42;;;;;;;15.23;8.85;;;19.20;99.90;;;;;;5095555;28;20077;-77
2022/07/21 04:31:08;;;;;;;12.80;7.78;;;19.20;99.90;;;;;;5095440;28;20032;-77
2022/07/21 04:33:34;;;;;;;14.98;8.85;;;19.30;99.90;;;;;;5095451;28;20481;-77
2022/07/21 04:36:00;;;;;;;13.15;7.50;;;19.30;99.90;;;;;;5095662;28;20016;-77
2022/07/21 04:38:26;;;;;;;12.55;8.05;;;19.30;99.90;;;;;;5095345;28;20077;-77
2022/07/21 04:40:51;;;;;;;15.63;8.23;;;19.40;99.90;;;;;;5095175;28;20114;-77
2022/07/21 04:43:17;;;;;;;16.20;7.72;;;19.40;99.90;;;;;;5094123;28;20059;-77
2022/07/21 04:45:42;;;;;;;15.48;8.00;;;19.40;99.90;;;;;;5095244;28;20114;-77
2022/07/21 04:48:08;;;;;;;16.75;9.15;;;19.40;99.90;;;;;;5095506;28;20031;-77
2022/07/21 04:50:33;;;;;;;16.52;8.63;;;19.50;99.90;;;;;;5095275;28;20591;-77
2022/07/21 04:52:59;;;;;;;13.38;8.20;;;19.50;99.90;;;;;;5093822;28;20020;-77
2022/07/21 04:55:25;;;;;;;13.07;7.72;;;19.50;99.90;;;;;;5094987;28;20024;-77
2022/07/21 04:57:53;;;;;;;13.98;8.38;;;19.50;99.90;;;;;;5093767;28;20549;-77
2022/07/21 05:00:21;;;;;;;20.00;9.55;;;19.60;99.90;;;;;;5094881;28;20024;-77
2022/07/21 05:02:47;;;;;;;19.23;10.27;;;19.60;99.90;;;;;;5093430;28;20024;-77
2022/07/21 05:05:13;;;;;;;16.60;9.63;;;19.50;99.90;;;;;;5094593;28;20032;-77
2022/07/21 05:07:39;;;;;;;18.92;10.68;;;19.50;99.90;;;;;;5095304;28;20028;-77
2022/07/21 05:10:06;;;;;;;17.77;10.60;;;19.50;99.90;;;;;;5093325;28;20020;-77
2022/07/21 05:12:32;;;;;;;19.63;10.57;;;19.50;99.90;;;;;;5095298;28;20473;-77
2022/07/21 05:14:57;;;;;;;16.33;10.85;;;19.50;99.90;;;;;;5094589;28;20012;-77
2022/07/21 05:17:23;;;;;;;16.60;10.57;;;19.50;99.90;;;;;;5093250;28;20069;-77
2022/07/21 05:19:50;;;;;;;16.92;10.15;;;19.50;99.90;;;;;;5094489;28;20051;-76
2022/07/21 05:22:16;;;;;;;22.02;11.68;;;19.60;99.90;;;;;;5094472;28;20016;-76
2022/07/21 05:24:42;;;;;;;23.02;12.25;;;19.50;99.90;;;;;;5094747;28;20047;-76
2022/07/21 05:27:07;;;;;;;18.40;11.05;;;19.50;99.90;;;;;;5094445;28;20021;-76
2022/07/21 05:29:33;;;;;;;22.30;11.63;;;19.50;99.90;;;;;;5094642;28;20498;-76
2022/07/21 05:31:59;;;;;;;21.13;11.15;;;19.50;99.90;;;;;;5094244;28;20067;-77
2022/07/21 05:34:24;;;;;;;17.25;10.02;;;19.60;99.90;;;;;;5094772;28;20024;-77
2022/07/21 05:36:50;;;;;;;17.50;9.82;;;19.60;99.90;;;;;;5094239;28;20027;-77
2022/07/21 05:39:15;;;;;;;19.10;10.15;;;19.70;99.90;;;;;;5094694;28;20028;-77
2022/07/21 05:41:41;;;;;;;18.30;9.55;;;19.90;99.90;;;;;;5092862;28;20020;-77
2022/07/21 05:44:06;;;;;;;15.50;9.13;;;19.70;99.90;;;;;;5094174;28;20024;-77
2022/07/21 05:46:32;;;;;;;19.52;10.05;;;19.80;99.90;;;;;;5094054;28;20082;-77
2022/07/21 05:48:57;;;;;;;18.58;9.45;;;19.90;99.90;;;;;;5094129;28;20031;-77
2022/07/21 05:51:23;;;;;;;19.33;10.00;;;19.90;99.90;;;;;;5093966;28;20107;-77
2022/07/21 05:53:49;;;;;;;14.45;8.70;;;20.00;99.90;;;;;;5093914;28;20473;-77
2022/07/21 05:56:14;;;;;;;21.65;9.73;;;20.00;99.90;;;;;;5094544;28;20084;-77
2022/07/21 05:58:40;;;;;;;19.90;9.15;;;20.20;99.90;;;;;;5093909;28;20017;-77
2022/07/21 06:01:08;;;;;;;20.42;9.25;;;20.20;99.90;;;;;;5094839;28;20062;-77
2022/07/21 06:03:42;;;;;;;17.48;8.60;;;20.30;99.90;;;;;;5092574;28;20024;-77
2022/07/21 06:06:08;;;;;;;20.27;7.55;;;20.30;99.90;;;;;;5094156;28;20039;-77
2022/07/21 06:08:38;;;;;;;15.60;9.52;;;20.40;99.90;;;;;;5093655;28;20075;-77
2022/07/21 06:11:04;;;;;;;15.77;8.88;;;20.20;99.90;;;;;;5092383;28;20493;-77
2022/07/21 06:13:30;;;;;;;14.35;8.43;;;20.40;99.90;;;;;;5093732;28;20089;-77
2022/07/21 06:15:55;;;;;;;18.20;8.27;;;20.50;99.90;;;;;;5093547;28;20020;-77
2022/07/21 06:18:21;;;;;;;18.67;8.85;;;20.60;99.90;;;;;;5093634;28;20027;-77
2022/07/21 06:20:46;;;;;;;18.02;8.00;;;20.70;99.90;;;;;;5093458;28;20086;-78
2022/07/21 06:23:12;;;;;;;16.92;8.20;;;20.90;99.90;;;;;;5093813;28;20055;-77
2022/07/21 06:25:38;;;;;;;19.23;9.15;;;21.10;99.90;;;;;;5092361;28;20046;-77
2022/07/21 06:28:03;;;;;;;17.08;8.57;;;21.20;99.90;;;;;;5093438;28;20055;-77
2022/07/21 06:30:29;;;;;;;16.85;8.93;;;21.20;99.90;;;;;;5092147;28;20110;-77
2022/07/21 06:32:54;;;;;;;16.05;8.32;;;21.20;99.90;;;;;;5093428;28;20091;-77
2022/07/21 06:35:20;;;;;;;18.10;8.80;;;21.30;99.90;;;;;;5092177;28;20017;-77
2022/07/21 06:37:46;;;;;;;20.30;9.48;;;21.30;99.90;;;;;;5093419;28;20103;-77
2022/07/21 06:40:12;;;;;;;20.42;9.07;;;21.20;99.90;;;;;;5093624;28;20030;-77
2022/07/21 06:42:38;;;;;;;22.80;10.95;;;21.30;99.90;;;;;;5093338;28;20396;-77
2022/07/21 06:45:05;;;;;;;19.17;10.32;;;21.20;99.90;;;;;;5092013;28;20162;-77
2022/07/21 06:47:30;;;;;;;24.40;10.95;;;21.30;99.90;;;;;;5092072;28;20503;-78
2022/07/21 06:50:01;;;;;;;22.50;11.50;;;21.30;99.90;;;;;;5093705;28;20028;-77
2022/07/21 06:52:27;;;;;;;23.63;12.07;;;21.20;99.90;;;;;;5091960;28;20469;-77
2022/07/21 06:54:53;;;;;;;25.55;12.55;;;21.10;99.90;;;;;;5093270;28;20070;-77
2022/07/21 06:57:18;;;;;;;25.35;11.10;;;21.00;99.90;;;;;;5091920;28;20031;-77
2022/07/21 06:59:44;;;;;;;24.90;12.65;;;20.90;99.90;;;;;;5091919;28;20076;-77
2022/07/21 07:02:09;;;;;;;26.75;11.38;;;21.00;99.90;;;;;;5093091;28;20068;-77
2022/07/21 07:04:35;;;;;;;24.23;12.02;;;21.10;99.90;;;;;;5091984;28;20047;-77
2022/07/21 07:07:01;;;;;;;28.38;12.65;;;21.40;99.90;;;;;;5105791;22;20043;-76
2022/07/21 07:09:26;;;;;;;26.85;11.93;;;21.40;99.90;;;;;;5093530;28;20069;-76
2022/07/21 07:11:52;;;;;;;27.85;12.45;;;21.50;99.90;;;;;;5074856;28;20028;-76
2022/07/21 07:14:19;;;;;;;33.00;12.40;;;21.50;99.90;;;;;;5092988;28;20126;-76
2022/07/21 07:16:45;;;;;;;29.10;13.48;;;21.60;99.90;;;;;;5093403;28;20507;-76
2022/07/21 07:19:10;;;;;;;28.73;13.43;;;21.70;99.90;;;;;;5093202;28;20016;-76
2022/07/21 07:21:36;;;;;;;32.63;12.75;;;22.00;99.90;;;;;;5093549;28;20409;-76
2022/07/21 07:24:02;;;;;;;30.58;12.35;;;21.80;99.90;;;;;;5074796;28;20513;-76
2022/07/21 07:26:28;;;;;;;25.38;12.48;;;21.70;99.90;;;;;;5075399;28;20024;-77
2022/07/21 07:28:53;;;;;;;28.88;13.27;;;21.70;99.90;;;;;;5096982;28;20031;-76
2022/07/21 07:31:19;;;;;;;30.75;12.32;;;21.60;99.90;;;;;;5078308;28;20028;-76
2022/07/21 07:33:44;;;;;;;26.75;12.13;;;21.40;99.90;;;;;;5096634;28;20024;-76
2022/07/21 07:36:12;;;;;;;32.67;12.63;;;21.30;99.90;;;;;;5078457;28;20108;-76
2022/07/21 07:38:38;;;;;;;24.48;11.73;;;21.10;99.90;;;;;;5078363;28;20017;-76
2022/07/21 07:41:04;;;;;;;30.73;12.43;;;21.00;99.90;;;;;;5078193;28;20408;-76
2022/07/21 07:43:29;;;;;;;30.08;12.70;;;20.90;99.90;;;;;;5096950;28;20031;-76
2022/07/21 07:45:55;;;;;;;29.70;13.60;;;20.80;99.90;;;;;;5096347;28;20027;-76
2022/07/21 07:48:20;;;;;;;32.22;14.43;;;20.80;99.90;;;;;;5096382;28;20020;-76
2022/07/21 07:50:46;;;;;;;30.95;12.85;;;20.60;99.90;;;;;;5096146;28;20016;-76
2022/07/21 07:53:11;;;;;;;35.88;14.15;;;20.50;99.90;;;;;;5096390;28;20077;-76
2022/07/21 07:55:37;;;;;;;30.77;13.07;;;20.50;99.90;;;;;;5096155;28;20013;-76
2022/07/21 07:58:05;;;;;;;28.98;12.23;;;20.40;99.90;;;;;;5096058;28;20373;-77
2022/07/21 08:00:31;;;;;;;30.48;12.23;;;20.30;99.90;;;;;;5095996;28;20024;-76
2022/07/21 08:02:57;;;;;;;30.75;14.05;;;20.20;99.90;;;;;;5096103;28;20099;-76
2022/07/21 08:05:22;;;;;;;27.80;13.52;;;20.10;99.90;;;;;;5095975;28;20071;-76
2022/07/21 08:07:48;;;;;;;26.25;12.52;;;20.00;99.90;;;;;;5077734;28;20028;-76
2022/07/21 08:10:13;;;;;;;31.15;13.55;;;19.90;99.90;;;;;;5096044;28;20038;-76
2022/07/21 08:12:40;;;;;;;26.80;13.85;;;19.90;99.90;;;;;;5095937;28;20024;-76
2022/07/21 08:15:06;;;;;;;28.33;14.82;;;19.90;99.90;;;;;;5095770;28;20448;-76
2022/07/21 08:17:32;;;;;;;27.63;11.68;;;19.90;99.90;;;;;;5096055;28;20429;-76
2022/07/21 08:19:58;;;;;;;26.17;11.60;;;19.90;99.90;;;;;;5095605;28;20020;-76
2022/07/21 08:22:23;;;;;;;22.38;10.10;;;19.90;99.90;;;;;;5095825;28;20177;-76
2022/07/21 08:24:49;;;;;;;22.80;10.20;;;19.90;99.90;;;;;;5095944;28;20028;-77
2022/07/21 08:27:14;;;;;;;23.40;11.20;;;19.80;99.90;;;;;;5077545;28;20023;-77
2022/07/21 08:29:40;;;;;;;18.17;10.00;;;19.80;99.90;;;;;;5095884;28;20024;-76
2022/07/21 08:32:06;;;;;;;21.30;10.10;;;19.70;99.90;;;;;;5095542;28;20020;-76
2022/07/21 08:34:31;;;;;;;22.25;8.60;;;19.70;99.90;;;;;;5077356;28;20024;-76
2022/07/21 08:36:57;;;;;;;11.60;7.10;;;19.80;99.90;;;;;;5095850;28;20092;-77
2022/07/21 08:39:23;;;;;;;13.18;6.30;;;19.80;99.90;;;;;;5094766;28;20032;-77
2022/07/21 08:41:50;;;;;;;14.75;7.50;;;19.70;99.90;;;;;;5095421;28;20020;-77
2022/07/21 08:44:16;;;;;;;11.98;6.70;;;19.60;99.90;;;;;;5095333;28;20435;-77
2022/07/21 08:46:42;;;;;;;12.45;6.07;;;19.80;99.90;;;;;;5095550;28;20077;-77
2022/07/21 08:49:09;;;;;;;11.93;6.72;;;19.50;99.90;;;;;;5095208;28;20028;-77
2022/07/21 08:51:36;;;;;;;12.05;5.35;;;19.50;99.90;;;;;;5076949;28;20035;-76
2022/07/21 08:54:03;;;;;;;15.00;4.90;;;19.50;99.90;;;;;;5077048;28;20028;-76
2022/07/21 08:56:29;;;;;;;5.45;2.83;;;19.40;99.90;;;;;;5095056;28;20045;-76
2022/07/21 08:58:55;;;;;;;5.90;2.20;;;19.30;99.90;;;;;;5076821;28;20110;-75
2022/07/21 09:01:23;;;;;;;7.05;1.88;;;19.30;99.90;;;;;;5094895;28;20024;-75
2022/07/21 09:03:53;;;;;;;1.45;0.60;;;19.20;99.90;;;;;;5095330;28;20039;-75
2022/07/21 09:06:19;;;;;;;4.47;1.17;;;19.20;99.90;;;;;;5094653;28;20043;-75
2022/07/21 09:08:49;;;;;;;2.85;1.42;;;19.20;99.90;;;;;;5094855;28;20024;-75
2022/07/21 09:11:22;;;;;;;1.77;1.00;;;19.20;99.90;;;;;;5076534;28;20036;-75
2022/07/21 09:14:13;;;;;;;3.22;1.13;;;19.30;99.90;;;;;;5076559;28;20016;-75
2022/07/21 09:16:42;;;;;;;4.50;1.40;;;19.30;99.90;;;;;;5094636;28;20027;-75
2022/07/21 09:19:26;;;;;;;2.40;1.50;;;19.30;99.90;;;;;;5094605;28;20024;-75
2022/07/21 09:21:55;;;;;;;2.55;1.30;;;19.30;99.90;;;;;;5094639;28;20031;-75
2022/07/21 09:24:28;;;;;;;2.65;1.60;;;19.20;99.90;;;;;;5094539;28;20047;-75
2022/07/21 09:27:14;;;;;;;5.03;1.35;;;19.20;99.90;;;;;;5076357;28;20038;-75
2022/07/21 09:30:02;;;;;;;2.80;1.40;;;19.20;99.90;;;;;;5094819;28;20024;-75
2022/07/21 09:32:30;;;;;;;5.80;1.80;;;19.30;99.90;;;;;;5076869;28;20043;-75
2022/07/21 09:35:05;;;;;;;2.47;1.40;;;19.30;99.90;;;;;;5076132;28;20024;-75
2022/07/21 09:37:32;;;;;;;2.72;1.42;;;19.30;99.90;;;;;;5076116;28;20062;-75
2022/07/21 09:40:06;;;;;;;3.83;1.60;;;19.40;99.90;;;;;;5094116;28;20020;-75
2022/07/21 09:42:44;;;;;;;2.95;1.15;;;19.40;99.90;;;;;;5094113;28;20020;-75
2022/07/21 09:45:16;;;;;;;3.55;1.75;;;19.40;99.90;;;;;;5094757;28;20110;-75
2022/07/21 09:47:43;;;;;;;2.03;1.67;;;19.40;99.90;;;;;;5076128;28;20385;-75
2022/07/21 09:50:12;;;;;;;2.17;1.50;;;19.40;99.90;;;;;;5093071;28;20024;-75
2022/07/21 09:52:43;;;;;;;3.50;1.10;;;19.40;99.90;;;;;;5093970;28;20074;-75
2022/07/21 09:55:14;;;;;;;2.92;1.50;;;19.30;99.90;;;;;;5076155;28;20109;-75
2022/07/21 09:57:40;;;;;;;2.67;1.70;;;19.40;99.90;;;;;;5093982;28;20040;-75
2022/07/21 10:00:09;;;;;;;6.43;2.47;;;19.40;99.90;;;;;;5093843;28;20024;-75
2022/07/21 10:02:35;;;;;;;2.40;1.17;;;19.40;99.90;;;;;;5075762;28;20020;-75
2022/07/21 10:05:10;;;;;;;4.18;1.50;;;19.60;99.90;;;;;;5093846;28;20035;-75
2022/07/21 10:07:42;;;;;;;2.75;1.50;;;19.50;99.90;;;;;;5093575;28;20043;-75
2022/07/21 10:10:08;;;;;;;3.90;2.15;;;19.50;99.90;;;;;;5093716;28;20448;-75
2022/07/21 10:12:34;;;;;;;3.15;1.60;;;19.50;99.90;;;;;;5075693;28;20016;-75
2022/07/21 10:15:00;;;;;;;7.18;2.17;;;19.50;99.90;;;;;;5093953;28;20016;-75
2022/07/21 10:17:26;;;;;;;3.70;1.23;;;19.50;99.90;;;;;;5093917;28;20020;-75
2022/07/21 10:19:57;;;;;;;3.92;2.35;;;19.30;99.90;;;;;;5093541;28;20020;-75
2022/07/21 10:22:48;;;;;;;2.78;1.45;;;19.30;99.90;;;;;;5075822;28;20043;-75
2022/07/21 10:25:14;;;;;;;4.72;1.95;;;19.20;99.90;;;;;;5093605;28;20384;-75
2022/07/21 10:28:13;;;;;;;2.90;2.15;;;19.30;99.90;;;;;;5093534;28;20493;-75
2022/07/21 10:30:44;;;;;;;5.75;2.53;;;19.40;99.90;;;;;;5093279;28;20013;-75
2022/07/21 10:33:12;;;;;;;4.10;2.17;;;19.20;99.90;;;;;;5093556;28;20048;-75
2022/07/21 10:35:45;;;;;;;8.20;2.00;;;19.10;99.90;;;;;;5093353;28;20027;-75
2022/07/21 10:38:28;;;;;;;5.65;2.40;;;19.10;99.90;;;;;;5075368;28;20063;-75
2022/07/21 10:40:54;;;;;;;8.88;2.50;;;19.10;99.90;;;;;;5093333;28;20024;-75
2022/07/21 10:43:36;;;;;;;4.30;2.20;;;19.20;99.90;;;;;;5075312;28;20031;-75
2022/07/21 10:46:01;;;;;;;4.43;2.22;;;19.20;99.90;;;;;;5093440;28;20039;-75
2022/07/21 10:48:44;;;;;;;5.20;1.63;;;19.30;99.90;;;;;;5075200;28;20024;-75
2022/07/21 10:51:11;;;;;;;4.88;1.88;;;19.30;99.90;;;;;;5074864;28;20028;-75
2022/07/21 10:53:37;;;;;;;4.10;1.88;;;19.30;99.90;;;;;;5093549;28;20020;-75
2022/07/21 10:56:03;;;;;;;4.30;1.33;;;19.40;99.90;;;;;;5075181;28;20024;-75
2022/07/21 10:58:34;;;;;;;2.72;1.60;;;19.40;99.90;;;;;;5093244;28;20027;-76
2022/07/21 11:01:05;;;;;;;3.42;1.33;;;19.30;99.90;;;;;;5093178;28;20024;-75
2022/07/21 11:03:37;;;;;;;6.72;1.73;;;19.20;99.90;;;;;;5078791;28;20031;-75
2022/07/21 11:06:06;;;;;;;3.63;1.50;;;19.20;99.90;;;;;;5078932;28;20059;-75
2022/07/21 11:08:42;;;;;;;2.25;1.15;;;19.10;99.90;;;;;;5097161;28;20024;-75
2022/07/21 11:11:15;;;;;;;1.42;1.20;;;19.10;99.90;;;;;;5078575;28;20418;-75
2022/07/21 11:14:01;;;;;;;1.83;0.80;;;19.20;99.90;;;;;;5097015;28;20020;-75
2022/07/21 11:16:42;;;;;;;3.70;1.40;;;19.20;99.90;;;;;;5097031;28;20035;-75
2022/07/21 11:19:37;;;;;;;1.42;0.93;;;19.20;99.90;;;;;;5096923;28;20028;-75
2022/07/21 11:22:12;;;;;;;2.45;0.68;;;19.20;99.90;;;;;;5097566;28;20127;-75
2022/07/21 11:24:40;;;;;;;1.45;0.80;;;19.30;99.90;;;;;;5096935;28;20073;-75
2022/07/21 11:27:17;;;;;;;0.77;0.57;;;19.20;99.90;;;;;;5078726;28;20032;-75
2022/07/21 11:29:44;;;;;;;3.42;1.33;;;19.20;99.90;;;;;;5078441;28;20032;-75
2022/07/21 11:32:11;;;;;;;1.02;0.63;;;19.20;99.90;;;;;;5096664;28;20028;-75
2022/07/21 11:34:43;;;;;;;3.33;0.50;;;19.10;99.90;;;;;;5096918;28;20524;-75
2022/07/21 11:37:10;;;;;;;1.38;0.30;;;19.20;99.90;;;;;;5097196;28;20522;-75
2022/07/21 11:39:35;;;;;;;1.00;0.43;;;19.10;99.90;;;;;;5097041;28;20349;-75
2022/07/21 11:42:03;;;;;;;3.08;0.50;;;19.20;99.90;;;;;;5096852;28;20023;-75
2022/07/21 11:44:29;;;;;;;3.83;0.43;;;19.30;99.90;;;;;;5097065;28;20035;-75
2022/07/21 11:46:58;;;;;;;0.93;0.52;;;19.30;99.90;;;;;;5096510;28;20485;-76
2022/07/21 11:49:24;;;;;;;1.20;0.85;;;19.30;99.90;;;;;;5096258;28;20028;-75
2022/07/21 11:52:04;;;;;;;1.98;1.05;;;19.40;99.90;;;;;;5078189;28;20016;-75
2022/07/21 11:54:47;;;;;;;2.65;0.75;;;19.40;99.90;;;;;;5096627;28;20031;-75
2022/07/21 11:57:14;;;;;;;4.20;0.50;;;19.30;99.90;;;;;;5077238;28;20042;-75
2022/07/21 11:59:40;;;;;;;1.75;0.77;;;19.30;99.90;;;;;;5096782;28;20111;-75
2022/07/21 12:02:14;;;;;;;0.50;0.40;;;19.30;99.90;;;;;;5077924;28;20020;-75
2022/07/21 12:04:48;;;;;;;1.25;0.73;;;19.30;99.90;;;;;;5096050;28;20067;-75
2022/07/21 12:07:18;;;;;;;1.42;1.00;;;19.40;99.90;;;;;;5095971;28;20035;-75
2022/07/21 12:09:47;;;;;;;1.48;0.65;;;19.40;99.90;;;;;;5096246;28;20024;-75
2022/07/21 12:12:13;;;;;;;2.58;0.85;;;19.50;99.90;;;;;;5096428;28;20024;-75
2022/07/21 12:14:48;;;;;;;1.08;0.43;;;19.50;99.90;;;;;;5095190;28;20027;-75
2022/07/21 12:17:16;;;;;;;3.40;0.80;;;19.50;99.90;;;;;;5096562;28;20476;-75
2022/07/21 12:19:43;;;;;;;2.33;0.63;;;19.40;99.90;;;;;;5096169;28;20070;-75
2022/07/21 12:22:09;;;;;;;2.85;0.52;;;19.50;99.90;;;;;;5096387;28;20020;-75
2022/07/21 12:24:55;;;;;;;0.68;0.55;;;19.50;99.90;;;;;;5077506;28;20544;-75
2022/07/21 12:27:21;;;;;;;2.72;0.40;;;19.50;99.90;;;;;;5095688;28;20473;-75
2022/07/21 12:29:47;;;;;;;1.02;0.50;;;19.50;99.90;;;;;;5095629;28;20504;-75
2022/07/21 12:32:34;;;;;;;0.30;0.17;;;19.50;99.90;;;;;;5077467;28;20030;-75
2022/07/21 12:34:59;;;;;;;0.75;0.30;;;19.60;99.90;;;;;;5095405;28;20035;-75
2022/07/21 12:38:04;;;;;;;0.55;0.28;;;19.40;99.90;;;;;;5095990;28;20020;-75
2022/07/21 12:40:34;;;;;;;2.10;0.45;;;19.40;99.90;;;;;;5095399;28;20023;-75
2022/07/21 12:43:20;;;;;;;1.40;0.20;;;19.40;99.90;;;;;;5077440;28;20024;-75
2022/07/21 12:45:47;;;;;;;0.50;0.05;;;19.40;99.90;;;;;;5095375;28;20028;-75